Time;durP1;ratioP1;P1;durP2;ratioP2;P2;SDS_P1;SDS_P2;PMS_P1;PMS_P2;Temp;Humidity;BMP_temperature;BMP_pressure;BME280_temperature;BME280_humidity;BME280_pressure;Samples;Min_cycle;Max_cycle;Signal;HPM_P1;HPM_P2
2023/08/07 00:01:25;;;;;;;5.55;1.42;;;;;;;-142.75;100.00;76530.91;5087214;28;20542;-64
2023/08/07 00:03:50;;;;;;;10.57;1.38;;;;;;;-142.75;100.00;76519.13;5087122;28;20531;-63
2023/08/07 00:06:15;;;;;;;15.38;2.65;;;;;;;-142.75;100.00;76527.00;5087489;28;20020;-64
2023/08/07 00:08:41;;;;;;;6.78;1.60;;;;;;;-142.75;100.00;76534.84;5087989;28;20023;-64
2023/08/07 00:11:10;;;;;;;9.77;1.48;;;;;;;-142.75;100.00;76532.88;5087496;28;20059;-64
2023/08/07 00:13:36;;;;;;;6.60;1.60;;;;;;;-142.75;100.00;76530.91;5086841;28;20030;-64
2023/08/07 00:16:01;;;;;;;4.40;1.30;;;;;;;-142.75;100.00;76530.91;5079195;28;20100;-64
2023/08/07 00:18:28;;;;;;;14.63;1.90;;;;;;;-142.75;100.00;76548.63;5067199;28;20036;-64
2023/08/07 00:20:53;;;;;;;9.50;1.75;;;;;;;-142.75;100.00;76550.59;5067005;28;20016;-63
2023/08/07 00:23:19;;;;;;;9.45;1.98;;;;;;;-142.75;100.00;76552.56;5066688;28;20021;-64
2023/08/07 00:25:44;;;;;;;10.18;1.80;;;;;;;-142.75;100.00;76558.47;5067098;28;20077;-64
2023/08/07 00:28:09;;;;;;;6.00;1.52;;;;;;;-142.75;100.00;76566.34;5066799;28;20048;-64
2023/08/07 00:30:34;;;;;;;7.75;1.10;;;;;;;-142.75;100.00;76584.06;5066806;28;20174;-64
2023/08/07 00:33:00;;;;;;;7.50;1.60;;;;;;;-142.75;100.00;76605.72;5066264;28;20066;-64
2023/08/07 00:35:25;;;;;;;6.88;1.63;;;;;;;-142.75;100.00;76584.06;5066552;28;20369;-64
2023/08/07 00:37:50;;;;;;;8.13;1.95;;;;;;;-142.75;100.00;76580.13;5066852;28;20017;-64
2023/08/07 00:40:17;;;;;;;5.68;1.08;;;;;;;-142.75;100.00;76580.13;5067588;28;20028;-63
2023/08/07 00:42:42;;;;;;;9.15;1.20;;;;;;;-142.75;100.00;76584.06;5066344;28;20024;-64
2023/08/07 00:45:08;;;;;;;5.35;1.33;;;;;;;-142.75;100.00;76597.84;5066632;28;20142;-64
2023/08/07 00:47:34;;;;;;;6.13;1.40;;;;;;;-142.75;100.00;76593.91;5076965;28;20076;-63
2023/08/07 00:49:59;;;;;;;14.10;1.95;;;;;;;-142.75;100.00;76601.78;5086562;28;20356;-64
2023/08/07 00:52:25;;;;;;;6.72;1.90;;;;;;;-142.75;100.00;76593.91;5086546;28;20028;-64
2023/08/07 00:54:50;;;;;;;9.07;1.67;;;;;;;-142.75;100.00;76593.91;5086901;28;20020;-64
2023/08/07 00:57:17;;;;;;;11.95;2.10;;;;;;;-142.75;100.00;76593.91;5086804;28;20458;-64
2023/08/07 00:59:43;;;;;;;11.05;2.35;;;;;;;-142.75;100.00;76556.50;5086487;28;20027;-64
2023/08/07 01:02:09;;;;;;;10.30;2.08;;;;;;;-142.75;100.00;76548.63;5071379;28;20017;-64
2023/08/07 01:04:35;;;;;;;11.10;1.83;;;;;;;-142.75;100.00;76538.78;5066276;28;20031;-64
2023/08/07 01:07:00;;;;;;;6.72;2.08;;;;;;;-142.75;100.00;76538.78;5066503;28;20032;-64
2023/08/07 01:09:26;;;;;;;12.35;2.28;;;;;;;-142.75;100.00;76538.78;5067094;28;20395;-64
2023/08/07 01:11:54;;;;;;;10.20;2.90;;;;;;;-142.75;100.00;76548.63;5079490;28;20107;-64
2023/08/07 01:14:37;;;;;;;7.50;1.52;;;;;;;-142.75;100.00;76546.66;5086402;28;20020;-64
2023/08/07 01:17:10;;;;;;;6.18;1.48;;;;;;;-142.75;100.00;76534.84;5086388;28;20100;-64
2023/08/07 01:19:36;;;;;;;7.40;2.10;;;;;;;-142.75;100.00;76532.88;5069863;28;20033;-64
2023/08/07 01:22:12;;;;;;;11.13;2.00;;;;;;;-142.75;100.00;76536.84;5067702;28;20338;-64
2023/08/07 01:24:40;;;;;;;11.63;2.08;;;;;;;-142.75;100.00;76527.00;5070513;28;20030;-64
2023/08/07 01:27:18;;;;;;;10.15;1.90;;;;;;;-142.75;100.00;76501.41;5070453;28;20027;-64
2023/08/07 01:30:14;;;;;;;9.80;1.67;;;;;;;-142.75;100.00;76487.63;5070515;28;20081;-63
2023/08/07 01:33:09;;;;;;;10.05;1.90;;;;;;;-142.75;100.00;76513.22;5069657;28;20076;-64
2023/08/07 01:35:43;;;;;;;13.13;1.98;;;;;;;-142.75;100.00;76534.84;5069977;28;20070;-64
2023/08/07 01:38:11;;;;;;;9.18;1.98;;;;;;;-142.75;100.00;76566.34;5070019;28;20562;-64
2023/08/07 01:40:38;;;;;;;10.68;1.90;;;;;;;-142.75;100.00;76589.97;5070945;28;20767;-64
2023/08/07 01:43:04;;;;;;;4.80;1.23;;;;;;;-142.75;100.00;76591.94;5069549;28;20055;-64
2023/08/07 01:45:29;;;;;;;7.43;1.85;;;;;;;-142.75;100.00;76586.03;5070101;28;20029;-64
2023/08/07 01:47:55;;;;;;;6.47;1.70;;;;;;;-142.75;100.00;76599.81;5080330;28;20109;-64
2023/08/07 01:50:22;;;;;;;8.38;3.08;;;;;;;-142.75;100.00;76593.91;5083397;28;20104;-64
2023/08/07 01:52:47;;;;;;;8.70;1.85;;;;;;;-142.75;100.00;76595.88;5069715;28;20031;-64
2023/08/07 01:55:17;;;;;;;8.82;1.75;;;;;;;-142.75;100.00;76597.84;5068458;28;20036;-64
2023/08/07 01:57:42;;;;;;;9.77;2.22;;;;;;;-142.75;100.00;76609.66;5069868;28;20582;-64
2023/08/07 02:00:08;;;;;;;10.13;2.45;;;;;;;-142.75;100.00;76613.59;5069778;28;20119;-64
2023/08/07 02:02:34;;;;;;;11.90;1.85;;;;;;;-142.75;100.00;76601.78;5069341;28;20036;-64
2023/08/07 02:05:00;;;;;;;9.95;2.03;;;;;;;-142.75;100.00;76617.53;5069692;28;20052;-64
2023/08/07 02:07:25;;;;;;;10.07;2.10;;;;;;;-142.75;100.00;76627.38;5072992;28;20036;-64
2023/08/07 02:09:50;;;;;;;4.13;1.50;;;;;;;-142.75;100.00;76621.47;5090698;28;20031;-64
2023/08/07 02:12:16;;;;;;;7.63;2.28;;;;;;;-142.75;100.00;76625.41;5088841;28;20032;-64
2023/08/07 02:14:41;;;;;;;8.73;1.58;;;;;;;-142.75;100.00;76629.34;5089533;28;20076;-64
2023/08/07 02:17:07;;;;;;;9.93;2.72;;;;;;;-142.75;100.00;76633.28;5087634;28;20024;-64
2023/08/07 02:19:32;;;;;;;15.38;2.63;;;;;;;-142.75;100.00;76625.41;5069047;28;20024;-64
2023/08/07 02:21:57;;;;;;;5.57;1.80;;;;;;;-142.75;100.00;76625.41;5069156;28;20039;-64
2023/08/07 02:24:23;;;;;;;9.68;1.70;;;;;;;-142.75;100.00;76627.38;5072173;28;20039;-64
2023/08/07 02:26:48;;;;;;;8.38;1.83;;;;;;;-142.75;100.00;76625.41;5089794;28;20031;-64
2023/08/07 02:29:14;;;;;;;13.25;2.33;;;;;;;-142.75;100.00;76603.75;5089152;28;20032;-64
2023/08/07 02:31:39;;;;;;;8.27;1.90;;;;;;;-142.75;100.00;76601.78;5083202;28;20097;-64
2023/08/07 02:34:04;;;;;;;6.78;1.73;;;;;;;-142.75;100.00;76627.38;5067441;28;20074;-64
2023/08/07 02:36:30;;;;;;;7.22;2.08;;;;;;;-142.75;100.00;76631.31;5069094;28;20058;-64
2023/08/07 02:38:55;;;;;;;6.63;1.98;;;;;;;-142.75;100.00;76631.31;5069654;28;20032;-64
2023/08/07 02:41:20;;;;;;;9.13;1.77;;;;;;;-142.75;100.00;76633.28;5069342;28;20130;-64
2023/08/07 02:43:46;;;;;;;9.65;1.70;;;;;;;-142.75;100.00;76617.53;5068582;28;20025;-64
2023/08/07 02:46:11;;;;;;;9.70;1.98;;;;;;;-142.75;100.00;76621.47;5068830;28;20020;-64
2023/08/07 02:48:37;;;;;;;10.55;2.05;;;;;;;-142.75;100.00;76621.47;5068675;28;20032;-64
2023/08/07 02:51:02;;;;;;;8.65;1.65;;;;;;;-142.75;100.00;76629.34;5068498;28;20025;-64
2023/08/07 02:53:28;;;;;;;10.38;1.80;;;;;;;-142.75;100.00;76627.38;5068151;28;20153;-64
2023/08/07 02:55:53;;;;;;;11.30;2.13;;;;;;;-142.75;100.00;76635.25;5068559;28;20032;-64
2023/08/07 02:58:19;;;;;;;10.32;1.80;;;;;;;-142.75;100.00;76611.63;5068609;28;20480;-63
2023/08/07 03:00:44;;;;;;;9.48;1.60;;;;;;;-142.75;100.00;76625.41;5068668;28;20395;-64
2023/08/07 03:03:09;;;;;;;9.55;1.85;;;;;;;-142.75;100.00;76621.47;5083277;28;20032;-64
2023/08/07 03:05:35;;;;;;;9.10;2.00;;;;;;;-142.75;100.00;76603.75;5088598;28;20040;-64
2023/08/07 03:08:00;;;;;;;12.65;1.90;;;;;;;-142.75;100.00;76584.06;5088475;28;20055;-64
2023/08/07 03:10:26;;;;;;;5.38;1.30;;;;;;;-142.75;100.00;76570.28;5089334;28;20111;-64
2023/08/07 03:12:51;;;;;;;8.07;2.15;;;;;;;-142.75;100.00;76562.41;5068285;28;20035;-64
2023/08/07 03:15:16;;;;;;;5.90;1.45;;;;;;;-142.75;100.00;76570.28;5068724;28;20024;-64
2023/08/07 03:17:42;;;;;;;8.98;1.38;;;;;;;-142.75;100.00;76586.03;5068310;28;20424;-64
2023/08/07 03:20:08;;;;;;;8.30;1.65;;;;;;;-142.75;100.00;76593.91;5068077;28;20032;-63
2023/08/07 03:22:33;;;;;;;9.70;1.92;;;;;;;-142.75;100.00;76578.16;5067701;28;20028;-64
2023/08/07 03:24:59;;;;;;;9.57;1.55;;;;;;;-142.75;100.00;76574.22;5066860;28;20119;-64
2023/08/07 03:27:24;;;;;;;5.28;1.60;;;;;;;-142.75;100.00;76578.16;5068069;28;20032;-64
2023/08/07 03:29:49;;;;;;;6.95;1.85;;;;;;;-142.75;100.00;76578.16;5068711;28;20028;-64
2023/08/07 03:32:15;;;;;;;6.28;1.38;;;;;;;-142.75;100.00;76576.19;5087951;28;20070;-64
2023/08/07 03:34:41;;;;;;;7.07;1.33;;;;;;;-142.75;100.00;76586.03;5087889;28;20028;-65
2023/08/07 03:37:06;;;;;;;10.60;1.55;;;;;;;-142.75;100.00;76574.22;5087721;28;20077;-64
2023/08/07 03:39:31;;;;;;;7.28;1.40;;;;;;;-142.75;100.00;76586.03;5089103;28;20056;-64
2023/08/07 03:41:57;;;;;;;10.45;1.83;;;;;;;-142.75;100.00;76586.03;5086349;28;20491;-64
2023/08/07 03:44:22;;;;;;;6.03;1.73;;;;;;;-142.75;100.00;76578.16;5087422;28;20564;-64
2023/08/07 03:46:47;;;;;;;4.72;1.35;;;;;;;-142.75;100.00;76589.97;5087729;28;20644;-64
2023/08/07 03:49:14;;;;;;;6.03;1.40;;;;;;;-142.75;100.00;76588.00;5088102;28;20031;-64
2023/08/07 03:51:39;;;;;;;8.95;1.83;;;;;;;-142.75;100.00;76593.91;5087827;28;20047;-64
2023/08/07 03:54:04;;;;;;;6.13;1.73;;;;;;;-142.75;100.00;76578.16;5087259;28;20058;-64
2023/08/07 03:56:36;;;;;;;8.20;1.27;;;;;;;-142.75;100.00;76574.22;5087539;28;20023;-64
2023/08/07 03:59:01;;;;;;;6.15;1.35;;;;;;;-142.75;100.00;76582.09;5087520;28;20173;-64
2023/08/07 04:01:27;;;;;;;8.50;1.60;;;;;;;-142.75;100.00;76582.09;5087342;28;20120;-64
2023/08/07 04:03:52;;;;;;;6.70;1.15;;;;;;;-142.75;100.00;76584.06;5067521;28;20484;-64
2023/08/07 04:06:17;;;;;;;8.45;1.75;;;;;;;-142.75;100.00;76582.09;5067412;28;20024;-64
2023/08/07 04:08:45;;;;;;;4.80;1.17;;;;;;;-142.75;100.00;76580.13;5069737;28;20047;-64
2023/08/07 04:11:10;;;;;;;8.98;1.40;;;;;;;-142.75;100.00;76588.00;5088405;28;20044;-64
2023/08/07 04:13:36;;;;;;;8.20;1.88;;;;;;;-142.75;100.00;76570.28;5086865;28;20120;-65
2023/08/07 04:16:04;;;;;;;8.57;1.70;;;;;;;-142.75;100.00;76582.09;5087270;28;20027;-64
2023/08/07 04:18:29;;;;;;;8.60;1.40;;;;;;;-142.75;100.00;76589.97;5087047;28;20085;-64
2023/08/07 04:20:56;;;;;;;6.72;1.25;;;;;;;-142.75;100.00;76574.22;5087174;28;20029;-64
2023/08/07 04:23:22;;;;;;;12.00;1.77;;;;;;;-142.75;100.00;76574.22;5086901;28;20016;-64
2023/08/07 04:25:48;;;;;;;8.38;1.60;;;;;;;-142.75;100.00;76560.44;5087131;28;20024;-64
2023/08/07 04:28:14;;;;;;;10.02;1.42;;;;;;;-142.75;100.00;76568.31;5085960;28;20372;-64
2023/08/07 04:30:41;;;;;;;10.25;1.65;;;;;;;-142.75;100.00;76576.19;5081336;28;20497;-64
2023/08/07 04:33:07;;;;;;;12.07;2.22;;;;;;;-142.75;100.00;76566.34;5079880;28;20020;-64
2023/08/07 04:35:32;;;;;;;10.77;1.73;;;;;;;-142.75;100.00;76574.22;5066757;28;20034;-64
2023/08/07 04:37:57;;;;;;;10.73;1.63;;;;;;;-142.75;100.00;76576.19;5066739;28;20403;-63
2023/08/07 04:40:23;;;;;;;10.02;1.73;;;;;;;-142.75;100.00;76591.94;5067499;28;20029;-65
2023/08/07 04:42:51;;;;;;;7.57;1.42;;;;;;;-142.75;100.00;76597.84;5071765;28;20024;-64
2023/08/07 04:45:17;;;;;;;11.10;2.47;;;;;;;-142.75;100.00;76595.88;5085306;28;20028;-64
2023/08/07 04:47:42;;;;;;;8.30;1.85;;;;;;;-142.75;100.00;76613.59;5086463;28;20020;-65
2023/08/07 04:50:08;;;;;;;11.35;1.85;;;;;;;-142.75;100.00;76609.66;5086623;28;20030;-64
2023/08/07 04:52:34;;;;;;;10.05;1.83;;;;;;;-142.75;100.00;76621.47;5072649;28;20034;-64
2023/08/07 04:54:59;;;;;;;10.18;1.48;;;;;;;-142.75;100.00;76625.41;5074834;28;20020;-64
2023/08/07 04:57:25;;;;;;;10.48;1.42;;;;;;;-142.75;100.00;76611.63;5085913;28;20027;-65
2023/08/07 04:59:50;;;;;;;8.25;1.30;;;;;;;-142.75;100.00;76609.66;5086520;28;20027;-64
2023/08/07 05:02:16;;;;;;;10.98;1.85;;;;;;;-142.75;100.00;76617.53;5086702;28;20059;-64
2023/08/07 05:04:41;;;;;;;7.25;1.30;;;;;;;-142.75;100.00;76621.47;5086322;28;20095;-64
2023/08/07 05:07:07;;;;;;;14.05;1.40;;;;;;;-142.75;100.00;76629.34;5086279;28;20055;-64
2023/08/07 05:09:32;;;;;;;5.95;1.17;;;;;;;-142.75;100.00;76619.50;5086328;28;20077;-64
2023/08/07 05:11:57;;;;;;;9.40;1.90;;;;;;;-142.75;100.00;76637.22;5080000;28;20057;-64
2023/08/07 05:14:22;;;;;;;6.30;1.42;;;;;;;-142.75;100.00;76633.28;5074257;28;20108;-65
2023/08/07 05:16:48;;;;;;;8.60;1.50;;;;;;;-142.75;100.00;76641.16;5065692;28;20056;-64
2023/08/07 05:19:13;;;;;;;13.60;1.67;;;;;;;-142.75;100.00;76633.28;5081672;28;20051;-64
2023/08/07 05:21:39;;;;;;;12.38;1.80;;;;;;;-142.75;100.00;76623.44;5085564;28;20016;-65
2023/08/07 05:24:04;;;;;;;9.00;1.52;;;;;;;-142.75;100.00;76649.03;5085411;28;20491;-64
2023/08/07 05:26:30;;;;;;;8.68;1.30;;;;;;;-142.75;100.00;76633.28;5085600;28;20098;-64
2023/08/07 05:28:57;;;;;;;8.00;1.45;;;;;;;-142.75;100.00;76643.13;5085463;28;20026;-65
2023/08/07 05:31:24;;;;;;;8.45;1.63;;;;;;;-142.75;100.00;76633.28;5085588;28;20028;-64
2023/08/07 05:33:49;;;;;;;11.55;1.90;;;;;;;-142.75;100.00;76645.09;5084676;28;20487;-61
2023/08/07 05:36:14;;;;;;;5.15;0.90;;;;;;;-142.75;100.00;76645.09;5077403;28;20021;-64
2023/08/07 05:38:42;;;;;;;8.60;2.10;;;;;;;-142.75;100.00;76652.97;5065887;28;20028;-64
2023/08/07 05:41:09;;;;;;;8.57;1.27;;;;;;;-142.75;100.00;76660.84;5066435;28;20025;-64
2023/08/07 05:43:34;;;;;;;9.80;1.52;;;;;;;-142.75;100.00;76645.09;5064042;28;20654;-65
2023/08/07 05:45:59;;;;;;;4.15;1.33;;;;;;;-142.75;100.00;76637.22;5075427;28;20071;-64
2023/08/07 05:48:25;;;;;;;11.68;1.55;;;;;;;-142.75;100.00;76666.75;5085327;28;20108;-67
2023/08/07 05:50:52;;;;;;;7.60;1.17;;;;;;;-142.75;100.00;76658.88;5085488;28;20487;-64
2023/08/07 05:53:19;;;;;;;8.70;1.23;;;;;;;-142.75;100.00;76641.16;5085538;28;20044;-64
2023/08/07 05:55:44;;;;;;;8.05;1.45;;;;;;;-142.75;100.00;76645.09;5085626;28;20020;-64
2023/08/07 05:58:10;;;;;;;11.35;1.48;;;;;;;-142.75;100.00;76660.84;5085521;28;20034;-64
2023/08/07 06:00:35;;;;;;;8.68;1.48;;;;;;;-142.75;100.00;76658.88;5085369;28;20399;-64
2023/08/07 06:03:01;;;;;;;13.18;1.50;;;;;;;-142.75;100.00;76625.41;5084850;28;20027;-64
2023/08/07 06:05:26;;;;;;;9.57;1.52;;;;;;;-142.75;100.00;76633.28;5068221;28;20487;-64
2023/08/07 06:07:51;;;;;;;9.10;1.45;;;;;;;-142.75;100.00;76617.53;5065330;28;20123;-64
2023/08/07 06:10:17;;;;;;;9.32;2.13;;;;;;;-142.75;100.00;76641.16;5069765;28;20100;-64
2023/08/07 06:12:42;;;;;;;6.32;1.10;;;;;;;-142.75;100.00;76637.22;5082357;28;20032;-64
2023/08/07 06:15:08;;;;;;;11.68;1.70;;;;;;;-142.75;100.00;76619.50;5088959;28;20028;-65
2023/08/07 06:17:34;;;;;;;10.88;1.58;;;;;;;-142.75;100.00;76645.09;5089009;28;20028;-66
2023/08/07 06:19:59;;;;;;;8.25;1.67;;;;;;;-142.75;100.00;76637.22;5088820;28;20463;-64
2023/08/07 06:22:24;;;;;;;6.32;1.65;;;;;;;-142.75;100.00;76629.34;5071082;28;20036;-64
2023/08/07 06:24:50;;;;;;;7.82;1.33;;;;;;;-142.75;100.00;76621.47;5070528;28;20032;-64
2023/08/07 06:27:15;;;;;;;6.53;1.35;;;;;;;-142.75;100.00;76629.34;5073102;28;20085;-64
2023/08/07 06:29:41;;;;;;;7.53;1.23;;;;;;;-142.75;100.00;76641.16;5075628;28;20136;-64
2023/08/07 06:32:06;;;;;;;10.30;2.03;;;;;;;-142.75;100.00;76641.16;5068487;28;20040;-64
2023/08/07 06:34:32;;;;;;;9.75;1.25;;;;;;;-142.75;100.00;76639.19;5070176;28;20017;-63
2023/08/07 06:36:57;;;;;;;6.50;1.40;;;;;;;-142.75;100.00;76619.50;5079346;28;20066;-64
2023/08/07 06:39:22;;;;;;;9.45;1.65;;;;;;;-142.75;100.00;76645.09;5082066;28;20040;-64
2023/08/07 06:41:48;;;;;;;7.32;1.80;;;;;;;-142.75;100.00;76633.28;5081867;28;20549;-64
2023/08/07 06:44:13;;;;;;;6.22;1.80;;;;;;;-142.75;100.00;76625.41;5081112;28;20035;-63
2023/08/07 06:46:39;;;;;;;9.95;1.60;;;;;;;-142.75;100.00;76611.63;5084338;28;20039;-63
2023/08/07 06:49:04;;;;;;;10.48;1.67;;;;;;;-142.75;100.00;76601.78;5079576;28;20085;-64
2023/08/07 06:51:29;;;;;;;5.68;1.33;;;;;;;-142.75;100.00;76607.69;5077968;28;20120;-63
2023/08/07 06:53:55;;;;;;;9.82;1.40;;;;;;;-142.75;100.00;76576.19;5073953;28;20078;-64
2023/08/07 06:56:20;;;;;;;5.50;1.30;;;;;;;-142.75;100.00;76562.41;5073895;28;20392;-63
2023/08/07 06:58:46;;;;;;;6.15;1.38;;;;;;;-142.75;100.00;76534.84;5078473;28;20116;-63
2023/08/07 07:01:11;;;;;;;6.75;1.10;;;;;;;-142.75;100.00;76499.44;5082805;28;20028;-64
2023/08/07 07:03:36;;;;;;;8.02;1.73;;;;;;;-142.75;100.00;76507.31;5077959;28;20020;-63
2023/08/07 07:06:02;;;;;;;11.75;1.75;;;;;;;-142.75;100.00;76495.50;5080420;28;20672;-64
2023/08/07 07:08:27;;;;;;;9.07;1.38;;;;;;;-142.75;100.00;76471.88;5081063;28;20032;-64
2023/08/07 07:10:53;;;;;;;6.38;1.25;;;;;;;-142.75;100.00;76465.97;5076232;28;20020;-64
2023/08/07 07:13:18;;;;;;;6.97;1.45;;;;;;;-142.75;100.00;76456.13;5076806;28;20116;-64
2023/08/07 07:15:43;;;;;;;15.55;1.65;;;;;;;-142.75;100.00;76471.88;5071208;28;20111;-64
2023/08/07 07:18:09;;;;;;;6.30;1.67;;;;;;;-142.75;100.00;76467.94;5074473;28;20032;-66
2023/08/07 07:20:34;;;;;;;8.18;1.40;;;;;;;-142.75;100.00;76481.72;5075158;28;20020;-64
2023/08/07 07:23:00;;;;;;;7.47;1.58;;;;;;;-142.75;100.00;76483.69;5070651;28;20024;-65
2023/08/07 07:25:25;;;;;;;9.00;2.08;;;;;;;-142.75;100.00;76442.34;5074061;28;20028;-65
2023/08/07 07:27:51;;;;;;;10.15;1.75;;;;;;;-142.75;100.00;76448.25;5071035;28;20032;-63
2023/08/07 07:30:16;;;;;;;8.13;1.38;;;;;;;-142.75;100.00;76434.47;5072828;28;20070;-64
2023/08/07 07:32:42;;;;;;;6.40;1.17;;;;;;;-142.75;100.00;76420.69;5072324;28;20044;-64
2023/08/07 07:35:07;;;;;;;5.47;1.40;;;;;;;-142.75;100.00;76393.13;5071748;28;20153;-63
2023/08/07 07:37:33;;;;;;;6.10;1.58;;;;;;;-142.75;100.00;76385.25;5073307;28;20447;-64
2023/08/07 07:39:59;;;;;;;5.88;1.50;;;;;;;-142.75;100.00;76389.19;5069959;28;20150;-63
2023/08/07 07:42:24;;;;;;;6.25;1.60;;;;;;;-142.75;100.00;76412.81;5067086;28;20025;-62
2023/08/07 07:44:49;;;;;;;6.43;1.52;;;;;;;-142.75;100.00;76365.56;5066101;28;20549;-61
2023/08/07 07:47:15;;;;;;;6.38;1.48;;;;;;;-142.75;100.00;76365.56;5067185;28;20028;-63
2023/08/07 07:49:49;;;;;;;7.28;1.35;;;;;;;-142.75;100.00;76316.38;5081351;28;20047;-62
2023/08/07 07:52:15;;;;;;;7.00;1.63;;;;;;;-142.75;100.00;76304.56;5087570;28;20032;-63
2023/08/07 07:54:40;;;;;;;8.52;1.48;;;;;;;-142.75;100.00;76251.41;5082670;28;20035;-62
2023/08/07 07:57:06;;;;;;;6.90;1.40;;;;;;;-142.75;100.00;76361.63;5066938;28;20017;-62
2023/08/07 07:59:32;;;;;;;8.73;1.60;;;;;;;-142.75;100.00;76424.63;5067113;28;20028;-63
2023/08/07 08:01:57;;;;;;;4.95;1.35;;;;;;;-142.75;100.00;76434.47;5066632;28;20111;-62
2023/08/07 08:04:22;;;;;;;10.73;1.45;;;;;;;-142.75;100.00;76406.91;5066798;28;20040;-62
2023/08/07 08:06:48;;;;;;;3.28;0.82;;;;;;;-142.75;100.00;76410.84;5068650;28;20029;-62
2023/08/07 08:09:13;;;;;;;6.28;1.50;;;;;;;-142.75;100.00;76367.53;5069308;28;20055;-62
2023/08/07 08:11:39;;;;;;;7.75;1.08;;;;;;;-142.75;100.00;76347.84;5068959;28;20024;-62
2023/08/07 08:14:04;;;;;;;6.57;1.38;;;;;;;-142.75;100.00;76341.97;5067741;28;20467;-62
2023/08/07 08:16:30;;;;;;;4.90;1.10;;;;;;;-142.75;100.00;76332.13;5069145;28;20032;-62
2023/08/07 08:18:55;;;;;;;6.55;1.20;;;;;;;-142.75;100.00;76314.41;5069017;28;20024;-62
2023/08/07 08:21:20;;;;;;;8.18;2.03;;;;;;;-142.75;100.00;76306.53;5068943;28;20032;-62
2023/08/07 08:23:45;;;;;;;3.67;1.17;;;;;;;-142.75;100.00;76294.72;5067464;28;20028;-63
2023/08/07 08:26:11;;;;;;;5.68;0.90;;;;;;;-142.75;100.00;76310.47;5068969;28;20032;-62
2023/08/07 08:28:36;;;;;;;4.10;1.10;;;;;;;-142.75;100.00;76265.19;5068690;28;20024;-62
2023/08/07 08:31:02;;;;;;;7.38;1.40;;;;;;;-142.75;100.00;76247.47;5068779;28;20619;-62
2023/08/07 08:33:27;;;;;;;5.70;1.27;;;;;;;-142.75;100.00;76243.53;5068875;28;20025;-62
2023/08/07 08:35:52;;;;;;;8.05;1.20;;;;;;;-142.75;97.26;76255.34;5069060;28;20511;-62
2023/08/07 08:38:19;;;;;;;5.15;1.25;;;;;;;-142.75;93.42;76257.31;5067569;28;20060;-63
2023/08/07 08:40:45;;;;;;;6.45;1.10;;;;;;;-142.75;90.27;76263.22;5068485;28;20107;-63
2023/08/07 08:43:12;;;;;;;5.82;1.10;;;;;;;-142.75;93.89;76243.53;5068454;28;20503;-62
2023/08/07 08:45:40;;;;;;;4.43;1.30;;;;;;;-142.75;93.56;76198.28;5080565;28;20106;-62
2023/08/07 08:48:11;;;;;;;3.20;1.05;;;;;;;-142.75;92.26;76200.25;5088613;28;20031;-63
2023/08/07 08:50:38;;;;;;;4.63;1.27;;;;;;;-142.75;90.56;76215.97;5088668;28;20054;-62
2023/08/07 08:53:04;;;;;;;3.53;1.13;;;;;;;-142.75;94.07;76194.34;5088566;28;20035;-63
2023/08/07 08:55:30;;;;;;;7.45;1.40;;;;;;;-142.75;96.67;76168.75;5088527;28;20020;-63
2023/08/07 08:58:00;;;;;;;4.43;1.15;;;;;;;-142.75;94.03;76154.97;5088610;28;20073;-63
2023/08/07 09:00:27;;;;;;;8.82;1.63;;;;;;;-142.75;88.96;76178.59;5068345;28;20032;-62
2023/08/07 09:02:52;;;;;;;3.17;0.77;;;;;;;-142.75;86.76;76204.16;5068235;28;20062;-63
2023/08/07 09:05:20;;;;;;;5.85;1.33;;;;;;;-142.75;86.78;76158.91;5068616;28;20052;-63
2023/08/07 09:07:46;;;;;;;9.63;1.60;;;;;;;-142.75;88.04;76166.78;5068520;28;20029;-63
2023/08/07 09:10:14;;;;;;;6.10;1.10;;;;;;;-142.75;86.01;76170.72;5068430;28;20024;-62
2023/08/07 09:12:52;;;;;;;6.32;1.15;;;;;;;-142.75;87.96;76123.47;5068093;28;20461;-63
2023/08/07 09:15:19;;;;;;;7.38;1.23;;;;;;;-142.75;85.08;76129.38;5068370;28;20035;-63
2023/08/07 09:17:46;;;;;;;6.13;1.02;;;;;;;-142.75;84.10;76147.09;5068315;28;20024;-62
2023/08/07 09:20:13;;;;;;;5.50;1.20;;;;;;;-142.75;83.87;76204.16;5068122;28;20027;-63
2023/08/07 09:22:40;;;;;;;6.50;0.95;;;;;;;-142.75;85.65;76247.47;5067919;28;20059;-63
2023/08/07 09:25:06;;;;;;;4.68;1.00;;;;;;;-142.75;88.74;76237.63;5073115;28;20115;-62
2023/08/07 09:27:31;;;;;;;8.70;1.35;;;;;;;-142.75;90.05;76208.09;5088293;28;20111;-62
2023/08/07 09:29:58;;;;;;;4.03;1.42;;;;;;;-142.75;95.19;76172.69;5070917;28;20059;-62
2023/08/07 09:32:24;;;;;;;5.25;1.30;;;;;;;-142.75;90.61;76198.28;5067999;28;20067;-62
2023/08/07 09:34:51;;;;;;;4.35;1.25;;;;;;;-142.75;89.67;76239.59;5066939;28;20432;-62
2023/08/07 09:37:16;;;;;;;5.28;1.27;;;;;;;-142.75;91.31;76214.00;5068085;28;20062;-63
2023/08/07 09:39:42;;;;;;;6.65;1.40;;;;;;;-142.75;90.68;76255.34;5068066;28;20796;-62
2023/08/07 09:42:16;;;;;;;4.15;1.17;;;;;;;-142.75;91.17;76225.81;5067957;28;20032;-62
2023/08/07 09:44:44;;;;;;;6.25;1.10;;;;;;;-142.75;90.68;76182.53;5072247;28;20108;-63
2023/08/07 09:47:14;;;;;;;2.88;0.90;;;;;;;-142.75;86.57;76162.84;5071670;28;20032;-64
2023/08/07 09:49:40;;;;;;;5.40;1.10;;;;;;;-142.75;84.60;76145.13;5072327;28;20514;-64
2023/08/07 09:52:07;;;;;;;8.13;1.88;;;;;;;-142.75;82.14;76147.09;5074375;28;20056;-64
2023/08/07 09:54:33;;;;;;;5.85;1.52;;;;;;;-142.75;82.71;76137.25;5073424;28;20053;-64
2023/08/07 09:57:01;;;;;;;6.70;1.20;;;;;;;-142.75;81.72;76133.31;5075466;28;20104;-62
2023/08/07 09:59:27;;;;;;;4.90;1.30;;;;;;;-142.75;82.82;76117.56;5075084;28;20024;-62
2023/08/07 10:01:54;;;;;;;3.47;1.05;;;;;;;-142.75;81.03;76093.94;5076056;28;20548;-62
2023/08/07 10:04:21;;;;;;;4.18;0.90;;;;;;;-142.75;83.96;76046.72;5077175;28;20444;-62
2023/08/07 10:06:46;;;;;;;5.43;1.38;;;;;;;-142.75;79.60;76054.59;5078224;28;20081;-61
2023/08/07 10:09:12;;;;;;;6.30;1.17;;;;;;;-142.75;78.02;76048.69;5079153;28;20032;-62
2023/08/07 10:11:39;;;;;;;3.47;1.13;;;;;;;-142.75;79.08;76013.25;5080487;28;20016;-64
2023/08/07 10:14:05;;;;;;;3.53;0.93;;;;;;;-142.75;76.96;76034.91;5075288;28;20051;-62
2023/08/07 10:16:31;;;;;;;4.80;1.05;;;;;;;-142.75;78.04;76025.06;5073522;28;20487;-62
2023/08/07 10:18:57;;;;;;;6.45;1.63;;;;;;;-142.75;77.71;76021.13;5075066;28;20048;-61
2023/08/07 10:21:24;;;;;;;7.20;1.02;;;;;;;-142.75;76.96;76009.31;5075838;28;20074;-62
2023/08/07 10:23:53;;;;;;;7.53;0.95;;;;;;;-142.75;76.26;75999.47;5069442;28;20032;-62
2023/08/07 10:26:22;;;;;;;3.95;0.93;;;;;;;-142.75;75.98;75985.69;5071239;28;20508;-62
2023/08/07 10:28:50;;;;;;;4.63;1.15;;;;;;;-142.75;74.71;75979.78;5071254;28;20466;-62
2023/08/07 10:31:16;;;;;;;5.20;1.10;;;;;;;-142.75;75.51;75967.97;5071065;28;20025;-63
2023/08/07 10:33:42;;;;;;;4.28;1.00;;;;;;;-142.75;77.29;75954.22;5070857;28;20034;-62
2023/08/07 10:36:10;;;;;;;4.35;1.20;;;;;;;-142.75;77.23;75944.38;5077397;28;20154;-62
2023/08/07 10:38:35;;;;;;;3.78;0.88;;;;;;;-142.75;76.76;75948.31;5081456;28;20107;-62
2023/08/07 10:41:01;;;;;;;5.55;1.35;;;;;;;-142.75;74.17;75958.16;5075350;28;20107;-64
2023/08/07 10:43:27;;;;;;;3.67;0.82;;;;;;;-142.75;73.68;75948.31;5076364;28;20028;-62
2023/08/07 10:45:53;;;;;;;3.75;1.02;;;;;;;-142.75;73.20;75977.81;5076012;28;20063;-62
2023/08/07 10:48:20;;;;;;;5.93;1.38;;;;;;;-142.75;74.86;75952.25;5079568;28;20082;-62
2023/08/07 10:51:00;;;;;;;2.80;0.95;;;;;;;-142.75;73.23;75940.44;5080877;28;20020;-62
2023/08/07 10:53:44;;;;;;;4.03;1.17;;;;;;;-142.75;77.16;75932.56;5073079;28;20130;-62
2023/08/07 10:56:18;;;;;;;5.85;0.90;;;;;;;-142.75;73.61;75934.53;5074295;28;20437;-62
2023/08/07 10:58:49;;;;;;;2.42;1.10;;;;;;;-142.75;72.94;75920.75;5071032;28;20020;-62
2023/08/07 11:01:40;;;;;;;5.38;1.35;;;;;;;-142.75;73.92;75936.50;5070663;28;20027;-62
2023/08/07 11:04:08;;;;;;;2.53;0.90;;;;;;;-142.75;73.40;75928.63;5069148;28;20070;-62
2023/08/07 11:06:36;;;;;;;7.90;1.17;;;;;;;-142.75;74.96;75897.13;5069587;28;20023;-62